sensor_id;sensor_type;location;lat;lon;timestamp;pressure;altitude;pressure_sealevel;temperature;humidity
3598;BME280;1813;52.016;8.714;2022-09-20T00:02:07;-16261.94;;;-139.71;75.17
3598;BME280;1813;52.016;8.714;2022-09-20T00:04:39;-16261.94;;;-139.71;75.11
3598;BME280;1813;52.016;8.714;2022-09-20T00:07:11;-16261.94;;;-139.71;75.02
3598;BME280;1813;52.016;8.714;2022-09-20T00:09:43;-16261.94;;;-139.71;74.96
3598;BME280;1813;52.016;8.714;2022-09-20T00:12:16;-16261.94;;;-139.71;74.91
3598;BME280;1813;52.016;8.714;2022-09-20T00:14:48;-16261.94;;;-139.71;74.78
3598;BME280;1813;52.016;8.714;2022-09-20T00:17:20;-16261.94;;;-139.71;74.70
3598;BME280;1813;52.016;8.714;2022-09-20T00:19:52;-16261.94;;;-139.71;74.54
3598;BME280;1813;52.016;8.714;2022-09-20T00:22:24;-16261.94;;;-139.71;74.55
3598;BME280;1813;52.016;8.714;2022-09-20T00:24:57;-16261.94;;;-139.71;74.46
3598;BME280;1813;52.016;8.714;2022-09-20T00:27:30;-16261.94;;;-139.71;74.61
3598;BME280;1813;52.016;8.714;2022-09-20T00:30:03;-16261.94;;;-139.71;74.69
3598;BME280;1813;52.016;8.714;2022-09-20T00:32:35;-16261.94;;;-139.71;74.85
3598;BME280;1813;52.016;8.714;2022-09-20T00:35:07;-16261.94;;;-139.71;75.03
3598;BME280;1813;52.016;8.714;2022-09-20T00:37:41;-16261.94;;;-139.71;75.33
3598;BME280;1813;52.016;8.714;2022-09-20T00:40:15;-16261.94;;;-139.71;75.43
3598;BME280;1813;52.016;8.714;2022-09-20T00:42:49;-16261.94;;;-139.71;75.46
3598;BME280;1813;52.016;8.714;2022-09-20T00:45:23;-16261.94;;;-139.71;75.57
3598;BME280;1813;52.016;8.714;2022-09-20T00:47:58;-16261.94;;;-139.71;75.61
3598;BME280;1813;52.016;8.714;2022-09-20T00:50:34;-16261.94;;;-139.71;75.62
3598;BME280;1813;52.016;8.714;2022-09-20T00:53:10;-16261.94;;;-139.71;75.78
3598;BME280;1813;52.016;8.714;2022-09-20T00:55:47;-16261.94;;;-139.71;75.78
3598;BME280;1813;52.016;8.714;2022-09-20T00:58:24;-16261.94;;;-139.71;75.75
3598;BME280;1813;52.016;8.714;2022-09-20T01:00:58;-16261.94;;;-139.71;75.71
3598;BME280;1813;52.016;8.714;2022-09-20T01:03:31;-16261.94;;;-139.71;75.79
3598;BME280;1813;52.016;8.714;2022-09-20T01:06:06;-16261.94;;;-139.71;75.83
3598;BME280;1813;52.016;8.714;2022-09-20T01:08:40;-16261.94;;;-139.71;75.95
3598;BME280;1813;52.016;8.714;2022-09-20T01:11:14;-16261.94;;;-139.71;76.19
3598;BME280;1813;52.016;8.714;2022-09-20T01:13:47;-16261.94;;;-139.71;76.32
3598;BME280;1813;52.016;8.714;2022-09-20T01:16:19;-16261.94;;;-139.71;76.42
3598;BME280;1813;52.016;8.714;2022-09-20T01:18:54;-16261.94;;;-139.71;76.48
3598;BME280;1813;52.016;8.714;2022-09-20T01:21:28;-16261.94;;;-139.71;76.60
3598;BME280;1813;52.016;8.714;2022-09-20T01:24:07;-16261.94;;;-139.71;76.57
3598;BME280;1813;52.016;8.714;2022-09-20T01:26:51;-16261.94;;;-139.71;76.52
3598;BME280;1813;52.016;8.714;2022-09-20T01:29:44;-16261.94;;;-139.71;76.60
3598;BME280;1813;52.016;8.714;2022-09-20T01:32:26;-16261.94;;;-139.71;76.42
3598;BME280;1813;52.016;8.714;2022-09-20T01:35:01;-16261.94;;;-139.71;76.31
3598;BME280;1813;52.016;8.714;2022-09-20T01:37:52;-16261.94;;;-139.71;76.37
3598;BME280;1813;52.016;8.714;2022-09-20T01:40:30;-16261.94;;;-139.71;76.74
3598;BME280;1813;52.016;8.714;2022-09-20T01:43:09;-16261.94;;;-139.71;76.87
3598;BME280;1813;52.016;8.714;2022-09-20T01:45:48;-16261.94;;;-139.71;76.68
3598;BME280;1813;52.016;8.714;2022-09-20T01:48:26;-16261.94;;;-139.71;76.70
3598;BME280;1813;52.016;8.714;2022-09-20T02:00:20;-16261.94;;;-139.71;76.95
3598;BME280;1813;52.016;8.714;2022-09-20T02:03:29;-16261.94;;;-139.71;77.17
3598;BME280;1813;52.016;8.714;2022-09-20T02:06:48;-16261.94;;;-139.71;77.47
3598;BME280;1813;52.016;8.714;2022-09-20T02:09:44;-16261.94;;;-139.71;77.64
3598;BME280;1813;52.016;8.714;2022-09-20T02:12:41;-16261.94;;;-139.71;77.84
3598;BME280;1813;52.016;8.714;2022-09-20T02:15:28;-16261.94;;;-139.71;77.73
3598;BME280;1813;52.016;8.714;2022-09-20T02:18:20;-16261.94;;;-139.71;77.90
3598;BME280;1813;52.016;8.714;2022-09-20T02:20:59;-16261.94;;;-139.71;78.10
3598;BME280;1813;52.016;8.714;2022-09-20T02:23:41;-16261.94;;;-139.71;78.28
3598;BME280;1813;52.016;8.714;2022-09-20T02:26:32;-16261.94;;;-139.71;78.56
3598;BME280;1813;52.016;8.714;2022-09-20T02:29:18;-16261.94;;;-139.71;78.49
3598;BME280;1813;52.016;8.714;2022-09-20T02:32:02;-16261.94;;;-139.71;78.70
3598;BME280;1813;52.016;8.714;2022-09-20T02:34:52;-16261.94;;;-139.71;79.01
3598;BME280;1813;52.016;8.714;2022-09-20T02:37:49;-16261.94;;;-139.71;79.07
3598;BME280;1813;52.016;8.714;2022-09-20T02:43:24;-16261.94;;;-139.71;79.60
3598;BME280;1813;52.016;8.714;2022-09-20T02:46:01;-16261.94;;;-139.71;79.85
3598;BME280;1813;52.016;8.714;2022-09-20T02:48:41;-16261.94;;;-139.71;80.14
3598;BME280;1813;52.016;8.714;2022-09-20T02:51:20;-16261.94;;;-139.71;80.28
3598;BME280;1813;52.016;8.714;2022-09-20T02:54:03;-16261.94;;;-139.71;80.37
3598;BME280;1813;52.016;8.714;2022-09-20T02:56:46;-16261.94;;;-139.71;80.45
3598;BME280;1813;52.016;8.714;2022-09-20T02:59:26;-16261.94;;;-139.71;80.56
3598;BME280;1813;52.016;8.714;2022-09-20T03:02:08;-16261.94;;;-139.71;80.46
3598;BME280;1813;52.016;8.714;2022-09-20T03:04:56;-16261.94;;;-139.71;80.57
3598;BME280;1813;52.016;8.714;2022-09-20T03:07:41;-16261.94;;;-139.71;80.49
3598;BME280;1813;52.016;8.714;2022-09-20T03:10:23;-16261.94;;;-139.71;80.36
3598;BME280;1813;52.016;8.714;2022-09-20T03:13:06;-16261.94;;;-139.71;80.17
3598;BME280;1813;52.016;8.714;2022-09-20T03:15:51;-16261.94;;;-139.71;80.17
3598;BME280;1813;52.016;8.714;2022-09-20T03:18:33;-16261.94;;;-139.71;80.13
3598;BME280;1813;52.016;8.714;2022-09-20T03:21:27;-16261.94;;;-139.71;80.39
3598;BME280;1813;52.016;8.714;2022-09-20T03:24:11;-16261.94;;;-139.71;80.50
3598;BME280;1813;52.016;8.714;2022-09-20T03:26:55;-16261.94;;;-139.71;80.77
3598;BME280;1813;52.016;8.714;2022-09-20T03:29:42;-16261.94;;;-139.71;81.00
3598;BME280;1813;52.016;8.714;2022-09-20T03:32:31;-16261.94;;;-139.71;81.07
3598;BME280;1813;52.016;8.714;2022-09-20T03:35:21;-16261.94;;;-139.71;80.86
3598;BME280;1813;52.016;8.714;2022-09-20T03:38:07;-16261.94;;;-139.71;80.51
3598;BME280;1813;52.016;8.714;2022-09-20T03:41:11;-16261.94;;;-139.71;80.39
3598;BME280;1813;52.016;8.714;2022-09-20T03:44:01;-16261.94;;;-139.71;79.96
3598;BME280;1813;52.016;8.714;2022-09-20T03:46:43;-16261.94;;;-139.71;79.75
3598;BME280;1813;52.016;8.714;2022-09-20T03:49:42;-16261.94;;;-139.71;79.50
3598;BME280;1813;52.016;8.714;2022-09-20T03:52:28;-16261.94;;;-139.71;78.95
3598;BME280;1813;52.016;8.714;2022-09-20T03:55:23;-16261.94;;;-139.71;78.81
3598;BME280;1813;52.016;8.714;2022-09-20T03:58:16;-16261.94;;;-139.71;78.80
3598;BME280;1813;52.016;8.714;2022-09-20T04:01:03;-16261.94;;;-139.71;78.62
3598;BME280;1813;52.016;8.714;2022-09-20T04:03:48;-16261.94;;;-139.71;78.61
3598;BME280;1813;52.016;8.714;2022-09-20T04:06:46;-16261.94;;;-139.71;78.52
3598;BME280;1813;52.016;8.714;2022-09-20T04:09:32;-16261.94;;;-139.71;78.73
3598;BME280;1813;52.016;8.714;2022-09-20T04:12:14;-16261.94;;;-139.71;78.70
3598;BME280;1813;52.016;8.714;2022-09-20T04:14:57;-16261.94;;;-139.71;78.56
3598;BME280;1813;52.016;8.714;2022-09-20T04:17:41;-16261.94;;;-139.71;78.79
3598;BME280;1813;52.016;8.714;2022-09-20T04:20:22;-16261.94;;;-139.71;78.93
3598;BME280;1813;52.016;8.714;2022-09-20T04:23:02;-16261.94;;;-139.71;79.45
3598;BME280;1813;52.016;8.714;2022-09-20T04:25:39;-16261.94;;;-139.71;79.77
3598;BME280;1813;52.016;8.714;2022-09-20T04:28:16;-16261.94;;;-139.71;80.00
3598;BME280;1813;52.016;8.714;2022-09-20T04:30:54;-16261.94;;;-139.71;80.31
3598;BME280;1813;52.016;8.714;2022-09-20T04:33:35;-16261.94;;;-139.71;80.37
3598;BME280;1813;52.016;8.714;2022-09-20T04:36:15;-16261.94;;;-139.71;80.40
3598;BME280;1813;52.016;8.714;2022-09-20T04:39:11;-16261.94;;;-139.71;80.62
3598;BME280;1813;52.016;8.714;2022-09-20T04:42:19;-16261.94;;;-139.71;80.73
3598;BME280;1813;52.016;8.714;2022-09-20T04:45:39;-16261.94;;;-139.71;80.80
3598;BME280;1813;52.016;8.714;2022-09-20T04:48:43;-16261.94;;;-139.71;80.84
3598;BME280;1813;52.016;8.714;2022-09-20T04:54:52;-16261.94;;;-139.71;80.67
3598;BME280;1813;52.016;8.714;2022-09-20T04:58:06;-16261.94;;;-139.71;81.10
3598;BME280;1813;52.016;8.714;2022-09-20T05:00:56;-16261.94;;;-139.71;81.15
3598;BME280;1813;52.016;8.714;2022-09-20T05:04:07;-16261.94;;;-139.71;81.32
3598;BME280;1813;52.016;8.714;2022-09-20T05:07:03;-16261.94;;;-139.71;81.38
3598;BME280;1813;52.016;8.714;2022-09-20T05:09:58;-16261.94;;;-139.71;81.25
3598;BME280;1813;52.016;8.714;2022-09-20T05:12:51;-16261.94;;;-139.71;81.46
3598;BME280;1813;52.016;8.714;2022-09-20T05:15:38;-16261.94;;;-139.71;81.54
3598;BME280;1813;52.016;8.714;2022-09-20T05:18:43;-16261.94;;;-139.71;81.64
3598;BME280;1813;52.016;8.714;2022-09-20T05:21:43;-16261.94;;;-139.71;81.80
3598;BME280;1813;52.016;8.714;2022-09-20T05:24:34;-16261.94;;;-139.71;81.91
3598;BME280;1813;52.016;8.714;2022-09-20T05:27:23;-16261.94;;;-139.71;82.01
3598;BME280;1813;52.016;8.714;2022-09-20T05:30:02;-16261.94;;;-139.71;82.13
3598;BME280;1813;52.016;8.714;2022-09-20T05:32:42;-16261.94;;;-139.71;82.03
3598;BME280;1813;52.016;8.714;2022-09-20T05:35:20;-16261.94;;;-139.71;82.24
3598;BME280;1813;52.016;8.714;2022-09-20T05:38:02;-16261.94;;;-139.71;82.16
3598;BME280;1813;52.016;8.714;2022-09-20T05:40:49;-16261.94;;;-139.71;82.38
3598;BME280;1813;52.016;8.714;2022-09-20T05:43:30;-16261.94;;;-139.71;82.50
3598;BME280;1813;52.016;8.714;2022-09-20T05:46:14;-16261.94;;;-139.71;82.62
3598;BME280;1813;52.016;8.714;2022-09-20T05:48:54;-16261.94;;;-139.71;82.58
3598;BME280;1813;52.016;8.714;2022-09-20T05:51:50;-16261.94;;;-139.71;82.72
3598;BME280;1813;52.016;8.714;2022-09-20T05:54:46;-16261.94;;;-139.71;82.74
3598;BME280;1813;52.016;8.714;2022-09-20T05:57:31;-16261.94;;;-139.71;82.67
3598;BME280;1813;52.016;8.714;2022-09-20T06:00:09;-16261.94;;;-139.71;82.65
3598;BME280;1813;52.016;8.714;2022-09-20T06:02:50;-16261.94;;;-139.71;82.74
3598;BME280;1813;52.016;8.714;2022-09-20T06:05:31;-16261.94;;;-139.71;82.55
3598;BME280;1813;52.016;8.714;2022-09-20T06:08:17;-16261.94;;;-139.71;82.57
3598;BME280;1813;52.016;8.714;2022-09-20T06:11:16;-16261.94;;;-139.71;82.54
3598;BME280;1813;52.016;8.714;2022-09-20T06:14:03;-16261.94;;;-139.71;82.53
3598;BME280;1813;52.016;8.714;2022-09-20T06:16:46;-16261.94;;;-139.71;82.56
3598;BME280;1813;52.016;8.714;2022-09-20T06:19:28;-16261.94;;;-139.71;82.42
3598;BME280;1813;52.016;8.714;2022-09-20T06:22:13;-16261.94;;;-139.71;82.38
3598;BME280;1813;52.016;8.714;2022-09-20T06:24:52;-16261.94;;;-139.71;82.22
3598;BME280;1813;52.016;8.714;2022-09-20T06:27:32;-16261.94;;;-139.71;82.10
3598;BME280;1813;52.016;8.714;2022-09-20T06:30:13;-16261.94;;;-139.71;81.94
3598;BME280;1813;52.016;8.714;2022-09-20T06:32:58;-16261.94;;;-139.71;82.00
3598;BME280;1813;52.016;8.714;2022-09-20T06:35:35;-16261.94;;;-139.71;81.70
3598;BME280;1813;52.016;8.714;2022-09-20T06:38:30;-16261.94;;;-139.71;81.53
3598;BME280;1813;52.016;8.714;2022-09-20T06:41:23;-16261.94;;;-139.71;81.43
3598;BME280;1813;52.016;8.714;2022-09-20T06:44:03;-16261.94;;;-139.71;81.39
3598;BME280;1813;52.016;8.714;2022-09-20T06:46:35;-16261.94;;;-139.71;81.32
3598;BME280;1813;52.016;8.714;2022-09-20T06:49:08;-16261.94;;;-139.71;81.26
3598;BME280;1813;52.016;8.714;2022-09-20T06:51:40;-16261.94;;;-139.71;81.04
3598;BME280;1813;52.016;8.714;2022-09-20T06:54:16;-16261.94;;;-139.71;80.94
3598;BME280;1813;52.016;8.714;2022-09-20T06:56:50;-16261.94;;;-139.71;80.85
3598;BME280;1813;52.016;8.714;2022-09-20T06:59:23;-16261.94;;;-139.71;80.71
3598;BME280;1813;52.016;8.714;2022-09-20T07:01:55;-16261.94;;;-139.71;80.45
3598;BME280;1813;52.016;8.714;2022-09-20T07:04:27;-16261.94;;;-139.71;80.10
3598;BME280;1813;52.016;8.714;2022-09-20T07:06:59;-16261.94;;;-139.71;80.08
3598;BME280;1813;52.016;8.714;2022-09-20T07:09:32;-16261.94;;;-139.71;80.11
3598;BME280;1813;52.016;8.714;2022-09-20T07:12:04;-16261.94;;;-139.71;80.01
3598;BME280;1813;52.016;8.714;2022-09-20T07:14:38;-16261.94;;;-139.71;79.68
3598;BME280;1813;52.016;8.714;2022-09-20T07:17:11;-16261.94;;;-139.71;79.53
3598;BME280;1813;52.016;8.714;2022-09-20T07:19:43;-16261.94;;;-139.71;79.52
3598;BME280;1813;52.016;8.714;2022-09-20T07:22:15;-16261.94;;;-139.71;79.59
3598;BME280;1813;52.016;8.714;2022-09-20T07:24:47;-16261.94;;;-139.71;79.78
3598;BME280;1813;52.016;8.714;2022-09-20T07:27:19;-16261.94;;;-139.71;79.47
3598;BME280;1813;52.016;8.714;2022-09-20T07:29:53;-16261.94;;;-139.71;79.24
3598;BME280;1813;52.016;8.714;2022-09-20T07:32:25;-16261.94;;;-139.71;79.33
3598;BME280;1813;52.016;8.714;2022-09-20T07:34:57;-16261.94;;;-139.71;79.65
3598;BME280;1813;52.016;8.714;2022-09-20T07:37:29;-16261.94;;;-139.71;79.73
3598;BME280;1813;52.016;8.714;2022-09-20T07:40:02;-16261.94;;;-139.71;79.51
3598;BME280;1813;52.016;8.714;2022-09-20T07:42:34;-16261.94;;;-139.71;79.24
3598;BME280;1813;52.016;8.714;2022-09-20T07:45:08;-16261.94;;;-139.71;79.16
3598;BME280;1813;52.016;8.714;2022-09-20T07:47:42;-16261.94;;;-139.71;79.19
3598;BME280;1813;52.016;8.714;2022-09-20T07:50:16;-16261.94;;;-139.71;79.36
3598;BME280;1813;52.016;8.714;2022-09-20T07:52:49;-16261.94;;;-139.71;79.35
3598;BME280;1813;52.016;8.714;2022-09-20T07:55:21;-16261.94;;;-139.71;79.37
3598;BME280;1813;52.016;8.714;2022-09-20T07:57:53;-16261.94;;;-139.71;79.26
3598;BME280;1813;52.016;8.714;2022-09-20T08:00:26;-16261.94;;;-139.71;79.35
3598;BME280;1813;52.016;8.714;2022-09-20T08:02:58;-16261.94;;;-139.71;79.33
3598;BME280;1813;52.016;8.714;2022-09-20T08:05:30;-16261.94;;;-139.71;79.73
3598;BME280;1813;52.016;8.714;2022-09-20T08:08:02;-16261.94;;;-139.71;79.38
3598;BME280;1813;52.016;8.714;2022-09-20T08:10:34;-16261.94;;;-139.71;79.14
3598;BME280;1813;52.016;8.714;2022-09-20T08:13:07;-16261.94;;;-139.71;79.30
3598;BME280;1813;52.016;8.714;2022-09-20T08:15:40;-16261.94;;;-139.71;79.57
3598;BME280;1813;52.016;8.714;2022-09-20T08:18:12;-16261.94;;;-139.71;79.22
3598;BME280;1813;52.016;8.714;2022-09-20T08:20:45;-16261.94;;;-139.71;78.73
3598;BME280;1813;52.016;8.714;2022-09-20T08:23:18;-16261.94;;;-139.71;78.34
3598;BME280;1813;52.016;8.714;2022-09-20T08:25:50;-16261.94;;;-139.71;78.19
3598;BME280;1813;52.016;8.714;2022-09-20T08:28:22;-16261.94;;;-139.71;78.00
3598;BME280;1813;52.016;8.714;2022-09-20T08:31:01;-16261.94;;;-139.71;78.06
3598;BME280;1813;52.016;8.714;2022-09-20T08:33:33;-16261.94;;;-139.71;77.52
3598;BME280;1813;52.016;8.714;2022-09-20T08:36:10;-16261.94;;;-139.71;77.59
3598;BME280;1813;52.016;8.714;2022-09-20T08:38:43;-16261.94;;;-139.71;78.28
3598;BME280;1813;52.016;8.714;2022-09-20T08:41:19;-16261.94;;;-139.71;78.66
3598;BME280;1813;52.016;8.714;2022-09-20T08:43:55;-16261.94;;;-139.71;77.49
3598;BME280;1813;52.016;8.714;2022-09-20T08:46:34;-16261.94;;;-139.71;76.89
3598;BME280;1813;52.016;8.714;2022-09-20T08:49:12;-16261.94;;;-139.71;76.63
3598;BME280;1813;52.016;8.714;2022-09-20T08:51:47;-16261.94;;;-139.71;77.13
3598;BME280;1813;52.016;8.714;2022-09-20T08:54:20;-16261.94;;;-139.71;75.76
3598;BME280;1813;52.016;8.714;2022-09-20T08:56:53;-16261.94;;;-139.71;74.39
3598;BME280;1813;52.016;8.714;2022-09-20T08:59:26;-16261.94;;;-139.71;72.37
3598;BME280;1813;52.016;8.714;2022-09-20T09:01:59;-16261.94;;;-139.71;71.95
3598;BME280;1813;52.016;8.714;2022-09-20T09:04:34;-16261.94;;;-139.71;69.66
3598;BME280;1813;52.016;8.714;2022-09-20T09:07:09;-16261.94;;;-139.71;70.62
3598;BME280;1813;52.016;8.714;2022-09-20T09:09:44;-16261.94;;;-139.71;69.71
3598;BME280;1813;52.016;8.714;2022-09-20T09:12:22;-16261.94;;;-139.71;69.97
3598;BME280;1813;52.016;8.714;2022-09-20T09:14:58;-16261.94;;;-139.71;68.91
3598;BME280;1813;52.016;8.714;2022-09-20T09:17:32;-16261.94;;;-139.71;66.88
3598;BME280;1813;52.016;8.714;2022-09-20T09:20:15;-16261.94;;;-139.71;66.86
3598;BME280;1813;52.016;8.714;2022-09-20T09:22:57;-16261.94;;;-139.71;66.18
3598;BME280;1813;52.016;8.714;2022-09-20T09:25:30;-16261.94;;;-139.71;63.21
3598;BME280;1813;52.016;8.714;2022-09-20T09:28:13;-16261.94;;;-139.71;62.40
3598;BME280;1813;52.016;8.714;2022-09-20T09:30:46;-16261.94;;;-139.71;61.32
3598;BME280;1813;52.016;8.714;2022-09-20T09:33:24;-16261.94;;;-139.71;61.13
3598;BME280;1813;52.016;8.714;2022-09-20T09:35:59;-16261.94;;;-139.71;61.40
3598;BME280;1813;52.016;8.714;2022-09-20T09:38:37;-16261.94;;;-139.71;62.19
3598;BME280;1813;52.016;8.714;2022-09-20T09:41:21;-16261.94;;;-139.71;59.62
3598;BME280;1813;52.016;8.714;2022-09-20T09:44:00;-16261.94;;;-139.71;59.03
3598;BME280;1813;52.016;8.714;2022-09-20T09:46:33;-16261.94;;;-139.71;58.05
3598;BME280;1813;52.016;8.714;2022-09-20T09:49:11;-16261.94;;;-139.71;57.76
3598;BME280;1813;52.016;8.714;2022-09-20T09:52:00;-16261.94;;;-139.71;57.24
3598;BME280;1813;52.016;8.714;2022-09-20T09:54:35;-16261.94;;;-139.71;58.68
3598;BME280;1813;52.016;8.714;2022-09-20T09:57:38;-16261.94;;;-139.71;56.72
3598;BME280;1813;52.016;8.714;2022-09-20T10:00:14;-16261.94;;;-139.71;54.53
3598;BME280;1813;52.016;8.714;2022-09-20T10:02:58;-16261.94;;;-139.71;57.79
3598;BME280;1813;52.016;8.714;2022-09-20T10:05:38;-16261.94;;;-139.71;54.88
3598;BME280;1813;52.016;8.714;2022-09-20T10:08:22;-16261.94;;;-139.71;54.34
3598;BME280;1813;52.016;8.714;2022-09-20T10:11:04;-16261.94;;;-139.71;55.27
3598;BME280;1813;52.016;8.714;2022-09-20T10:13:46;-16261.94;;;-139.71;54.82
3598;BME280;1813;52.016;8.714;2022-09-20T10:16:28;-16261.94;;;-139.71;52.46
3598;BME280;1813;52.016;8.714;2022-09-20T10:19:08;-16261.94;;;-139.71;52.75
3598;BME280;1813;52.016;8.714;2022-09-20T10:21:48;-16261.94;;;-139.71;51.11
3598;BME280;1813;52.016;8.714;2022-09-20T10:24:33;-16261.94;;;-139.71;50.58
3598;BME280;1813;52.016;8.714;2022-09-20T10:27:18;-16261.94;;;-139.71;50.93
3598;BME280;1813;52.016;8.714;2022-09-20T10:30:01;-16261.94;;;-139.71;53.13
3598;BME280;1813;52.016;8.714;2022-09-20T10:32:49;-16261.94;;;-139.71;54.77
3598;BME280;1813;52.016;8.714;2022-09-20T10:35:31;-16261.94;;;-139.71;53.32
3598;BME280;1813;52.016;8.714;2022-09-20T10:38:15;-16261.94;;;-139.71;52.57
3598;BME280;1813;52.016;8.714;2022-09-20T10:41:02;-16261.94;;;-139.71;49.53
3598;BME280;1813;52.016;8.714;2022-09-20T10:44:15;-16261.94;;;-139.71;49.13
3598;BME280;1813;52.016;8.714;2022-09-20T10:46:57;-16261.94;;;-139.71;49.85
3598;BME280;1813;52.016;8.714;2022-09-20T10:49:41;-16261.94;;;-139.71;49.21
3598;BME280;1813;52.016;8.714;2022-09-20T10:52:28;-16261.94;;;-139.71;49.75
3598;BME280;1813;52.016;8.714;2022-09-20T10:55:33;-16261.94;;;-139.71;50.49
3598;BME280;1813;52.016;8.714;2022-09-20T10:58:29;-16261.94;;;-139.71;52.18
3598;BME280;1813;52.016;8.714;2022-09-20T11:01:09;-16261.94;;;-139.71;53.57
3598;BME280;1813;52.016;8.714;2022-09-20T11:03:54;-16261.94;;;-139.71;55.69
3598;BME280;1813;52.016;8.714;2022-09-20T11:06:39;-16261.94;;;-139.71;56.48
3598;BME280;1813;52.016;8.714;2022-09-20T11:09:18;-16261.94;;;-139.71;58.12
3598;BME280;1813;52.016;8.714;2022-09-20T11:11:54;-16261.94;;;-139.71;59.02
3598;BME280;1813;52.016;8.714;2022-09-20T11:14:34;-16261.94;;;-139.71;60.03
3598;BME280;1813;52.016;8.714;2022-09-20T11:17:13;-16261.94;;;-139.71;61.68
3598;BME280;1813;52.016;8.714;2022-09-20T11:19:51;-16261.94;;;-139.71;63.09
3598;BME280;1813;52.016;8.714;2022-09-20T11:22:29;-16261.94;;;-139.71;64.82
3598;BME280;1813;52.016;8.714;2022-09-20T11:25:12;-16261.94;;;-139.71;66.07
3598;BME280;1813;52.016;8.714;2022-09-20T11:27:51;-16261.94;;;-139.71;67.22
3598;BME280;1813;52.016;8.714;2022-09-20T11:30:25;-16261.94;;;-139.71;68.49
3598;BME280;1813;52.016;8.714;2022-09-20T11:33:05;-16261.94;;;-139.71;69.17
3598;BME280;1813;52.016;8.714;2022-09-20T11:35:41;-16261.94;;;-139.71;68.60
3598;BME280;1813;52.016;8.714;2022-09-20T11:38:20;-16261.94;;;-139.71;68.72
3598;BME280;1813;52.016;8.714;2022-09-20T11:40:56;-16261.94;;;-139.71;69.97
3598;BME280;1813;52.016;8.714;2022-09-20T11:43:33;-16261.94;;;-139.71;71.24
3598;BME280;1813;52.016;8.714;2022-09-20T11:46:10;-16261.94;;;-139.71;70.68
3598;BME280;1813;52.016;8.714;2022-09-20T11:48:46;-16261.94;;;-139.71;71.64
3598;BME280;1813;52.016;8.714;2022-09-20T11:54:50;-16261.94;;;-139.71;69.84
3598;BME280;1813;52.016;8.714;2022-09-20T11:57:27;-16261.94;;;-139.71;68.42
3598;BME280;1813;52.016;8.714;2022-09-20T12:00:02;-16261.94;;;-139.71;67.95
3598;BME280;1813;52.016;8.714;2022-09-20T12:02:46;-16261.94;;;-139.71;66.16
3598;BME280;1813;52.016;8.714;2022-09-20T12:05:26;-16261.94;;;-139.71;66.90
3598;BME280;1813;52.016;8.714;2022-09-20T12:08:02;-16261.94;;;-139.71;67.59
3598;BME280;1813;52.016;8.714;2022-09-20T12:10:36;-16261.94;;;-139.71;66.65
3598;BME280;1813;52.016;8.714;2022-09-20T12:13:18;-16261.94;;;-139.71;67.71
3598;BME280;1813;52.016;8.714;2022-09-20T12:16:04;-16261.94;;;-139.71;68.21
3598;BME280;1813;52.016;8.714;2022-09-20T12:19:00;-16261.94;;;-139.71;66.46
3598;BME280;1813;52.016;8.714;2022-09-20T12:24:39;-16261.94;;;-139.71;66.95
3598;BME280;1813;52.016;8.714;2022-09-20T12:27:21;-16261.94;;;-139.71;66.16
3598;BME280;1813;52.016;8.714;2022-09-20T12:30:05;-16261.94;;;-139.71;63.70
3598;BME280;1813;52.016;8.714;2022-09-20T12:32:52;-16261.94;;;-139.71;62.59
3598;BME280;1813;52.016;8.714;2022-09-20T12:36:15;-16261.94;;;-139.71;59.18
3598;BME280;1813;52.016;8.714;2022-09-20T12:38:55;-16261.94;;;-139.71;58.34
3598;BME280;1813;52.016;8.714;2022-09-20T12:41:46;-16261.94;;;-139.71;57.54
3598;BME280;1813;52.016;8.714;2022-09-20T12:44:25;-16261.94;;;-139.71;54.78
3598;BME280;1813;52.016;8.714;2022-09-20T12:47:00;-16261.94;;;-139.71;53.74
3598;BME280;1813;52.016;8.714;2022-09-20T12:49:48;-16261.94;;;-139.71;54.66
3598;BME280;1813;52.016;8.714;2022-09-20T12:52:51;-16261.94;;;-139.71;54.72
3598;BME280;1813;52.016;8.714;2022-09-20T12:55:39;-16261.94;;;-139.71;53.42
3598;BME280;1813;52.016;8.714;2022-09-20T12:58:35;-16261.94;;;-139.71;52.05
3598;BME280;1813;52.016;8.714;2022-09-20T13:01:31;-16261.94;;;-139.71;53.37
3598;BME280;1813;52.016;8.714;2022-09-20T13:04:38;-16261.94;;;-139.71;51.94
3598;BME280;1813;52.016;8.714;2022-09-20T13:07:48;-16261.94;;;-139.71;50.94
3598;BME280;1813;52.016;8.714;2022-09-20T13:10:26;-16261.94;;;-139.71;49.58
3598;BME280;1813;52.016;8.714;2022-09-20T13:13:03;-16261.94;;;-139.71;49.57
3598;BME280;1813;52.016;8.714;2022-09-20T13:15:38;-16261.94;;;-139.71;48.98
3598;BME280;1813;52.016;8.714;2022-09-20T13:18:11;-16261.94;;;-139.71;47.45
3598;BME280;1813;52.016;8.714;2022-09-20T13:20:45;-16261.94;;;-139.71;45.04
3598;BME280;1813;52.016;8.714;2022-09-20T13:23:22;-16261.94;;;-139.71;43.92
3598;BME280;1813;52.016;8.714;2022-09-20T13:25:56;-16261.94;;;-139.71;43.38
3598;BME280;1813;52.016;8.714;2022-09-20T13:28:32;-16261.94;;;-139.71;43.85
3598;BME280;1813;52.016;8.714;2022-09-20T13:31:25;-16261.94;;;-139.71;42.10
3598;BME280;1813;52.016;8.714;2022-09-20T13:34:13;-16261.94;;;-139.71;41.49
3598;BME280;1813;52.016;8.714;2022-09-20T13:36:47;-16261.94;;;-139.71;41.27
3598;BME280;1813;52.016;8.714;2022-09-20T13:39:27;-16261.94;;;-139.71;40.56
3598;BME280;1813;52.016;8.714;2022-09-20T13:42:04;-16261.94;;;-139.71;40.34
3598;BME280;1813;52.016;8.714;2022-09-20T13:44:38;-16261.94;;;-139.71;37.95
3598;BME280;1813;52.016;8.714;2022-09-20T13:47:28;-16261.94;;;-139.71;39.47
3598;BME280;1813;52.016;8.714;2022-09-20T13:50:11;-16261.94;;;-139.71;39.87
3598;BME280;1813;52.016;8.714;2022-09-20T13:52:48;-16261.94;;;-139.71;40.41
3598;BME280;1813;52.016;8.714;2022-09-20T13:55:26;-16261.94;;;-139.71;42.68
3598;BME280;1813;52.016;8.714;2022-09-20T13:58:01;-16261.94;;;-139.71;43.97
3598;BME280;1813;52.016;8.714;2022-09-20T14:00:35;-16261.94;;;-139.71;44.02
3598;BME280;1813;52.016;8.714;2022-09-20T14:03:15;-16261.94;;;-139.71;44.55
3598;BME280;1813;52.016;8.714;2022-09-20T14:05:50;-16261.94;;;-139.71;44.10
3598;BME280;1813;52.016;8.714;2022-09-20T14:08:25;-16261.94;;;-139.71;43.64
3598;BME280;1813;52.016;8.714;2022-09-20T14:11:11;-16261.94;;;-139.71;43.82
3598;BME280;1813;52.016;8.714;2022-09-20T14:13:47;-16261.94;;;-139.71;44.90
3598;BME280;1813;52.016;8.714;2022-09-20T14:16:22;-16261.94;;;-139.71;45.58
3598;BME280;1813;52.016;8.714;2022-09-20T14:19:16;-16261.94;;;-139.71;44.93
3598;BME280;1813;52.016;8.714;2022-09-20T14:22:15;-16261.94;;;-139.71;45.29
3598;BME280;1813;52.016;8.714;2022-09-20T14:25:00;-16261.94;;;-139.71;45.17
3598;BME280;1813;52.016;8.714;2022-09-20T14:27:34;-16261.94;;;-139.71;45.52